Airfield :
LOGIN :

Register | Disclaimer

   EN    FR    IT 

 










Legend :    VFR   Marginal VFR   IFR   Intensive IFR   Very Intensive IFR
Visi :
Ceiling :
>= 8 km
>= 3000ft
5 to 8 km
1000 to 3000 ft
1500m to 5 km
500 to 1000 ft
800 to 1500m
200 to 500 ft
< 800m
< 200 ft
Symbols :   Thunderstorms  Fog  Heavy snow  Heavy precipitations  Wind > 20 kt
SIGMETs :     Misc.  Thunderstorms  Icing  Turbulence  Mountain Waves  Volcanic Ashes







- Airport Elevation : 68 ft
- IATA code : AGH


ESTA - Ängelholm-Helsingborg

CURRENT METAR :
  • 130850Z 06009KT 9999 BKN045 01/M01 Q1029

EXPIRED METARs :
  • 130820Z 05009KT 9999 BKN045 01/M01 Q1029
  • 130750Z 05009KT 9999 BKN044 01/M01 Q1029
  • 130720Z 06009KT 9999 OVC044 01/M01 Q1029
  • 130650Z 06009KT 9999 OVC042 01/M01 Q1029
  • 130620Z 05010KT 9999 OVC043 01/M01 Q1029

TAF TAF ESTA
Valid from the 13 at 09:00 until the 13 at 18:00 UTC


130807Z 1309/1318 05010KT 9999 BKN035
No reported NOTAMs for that airfield.



MET'MAP, your aeronautical weather chart ! - Copyright ORBIFLY December 2007 - Disclaimer

ORBIFLY MET'MAP TEAM :

Programming & Development : Alexandra Zaïnal
Concept & Development : Baudouin d'Aumeries
Co-Development & Prog : Marc-Olivier Méhu
Technical & hardware support : Manuel Goepfert

Contact : metmap@orbifly.com




SOURCES & CREDITS :

   NOAA